sensor_id;sensor_type;location;lat;lon;timestamp;temperature;humidity
216;HTU21D;70668;48.81286795;9.14184224;2024-02-26T00:02:04;7.18;84.10
216;HTU21D;70668;48.81286795;9.14184224;2024-02-26T00:04:32;7.14;84.80
216;HTU21D;70668;48.81286795;9.14184224;2024-02-26T00:07:01;7.08;84.19
216;HTU21D;70668;48.81286795;9.14184224;2024-02-26T00:09:29;7.25;84.12
216;HTU21D;70668;48.81286795;9.14184224;2024-02-26T00:12:01;7.08;85.16
216;HTU21D;70668;48.81286795;9.14184224;2024-02-26T00:14:29;7.07;84.23
216;HTU21D;70668;48.81286795;9.14184224;2024-02-26T00:17:00;7.01;86.13
216;HTU21D;70668;48.81286795;9.14184224;2024-02-26T00:19:29;7.24;85.78
216;HTU21D;70668;48.81286795;9.14184224;2024-02-26T00:21:57;7.05;86.09
216;HTU21D;70668;48.81286795;9.14184224;2024-02-26T00:24:26;6.88;85.34
216;HTU21D;70668;48.81286795;9.14184224;2024-02-26T00:26:54;7.10;84.92
216;HTU21D;70668;48.81286795;9.14184224;2024-02-26T00:29:23;6.95;87.14
216;HTU21D;70668;48.81286795;9.14184224;2024-02-26T00:31:51;6.89;86.51
216;HTU21D;70668;48.81286795;9.14184224;2024-02-26T00:34:22;7.07;85.87
216;HTU21D;70668;48.81286795;9.14184224;2024-02-26T00:36:51;7.02;86.40
216;HTU21D;70668;48.81286795;9.14184224;2024-02-26T00:39:19;7.01;86.64
216;HTU21D;70668;48.81286795;9.14184224;2024-02-26T00:41:48;6.99;85.83
216;HTU21D;70668;48.81286795;9.14184224;2024-02-26T00:44:17;6.97;85.59
216;HTU21D;70668;48.81286795;9.14184224;2024-02-26T00:46:45;6.99;85.24
216;HTU21D;70668;48.81286795;9.14184224;2024-02-26T00:49:14;6.89;85.46
216;HTU21D;70668;48.81286795;9.14184224;2024-02-26T00:51:45;7.05;87.13
216;HTU21D;70668;48.81286795;9.14184224;2024-02-26T00:54:14;6.88;87.19
216;HTU21D;70668;48.81286795;9.14184224;2024-02-26T00:56:42;7.00;86.63
216;HTU21D;70668;48.81286795;9.14184224;2024-02-26T00:59:11;6.96;86.23
216;HTU21D;70668;48.81286795;9.14184224;2024-02-26T01:01:40;6.98;84.80
216;HTU21D;70668;48.81286795;9.14184224;2024-02-26T01:04:09;7.16;84.88
216;HTU21D;70668;48.81286795;9.14184224;2024-02-26T01:06:37;7.09;85.70
216;HTU21D;70668;48.81286795;9.14184224;2024-02-26T01:09:08;7.03;85.92
216;HTU21D;70668;48.81286795;9.14184224;2024-02-26T01:11:37;7.01;87.88
216;HTU21D;70668;48.81286795;9.14184224;2024-02-26T01:14:05;7.09;85.71
216;HTU21D;70668;48.81286795;9.14184224;2024-02-26T01:16:34;7.14;87.57
216;HTU21D;70668;48.81286795;9.14184224;2024-02-26T01:19:02;7.20;83.64
216;HTU21D;70668;48.81286795;9.14184224;2024-02-26T01:21:31;7.27;85.06
216;HTU21D;70668;48.81286795;9.14184224;2024-02-26T01:23:59;7.14;85.61
216;HTU21D;70668;48.81286795;9.14184224;2024-02-26T01:26:30;7.34;81.52
216;HTU21D;70668;48.81286795;9.14184224;2024-02-26T01:28:59;7.25;85.40
216;HTU21D;70668;48.81286795;9.14184224;2024-02-26T01:31:27;7.22;84.50
216;HTU21D;70668;48.81286795;9.14184224;2024-02-26T01:33:56;7.25;85.42
216;HTU21D;70668;48.81286795;9.14184224;2024-02-26T01:36:24;7.29;84.51
216;HTU21D;70668;48.81286795;9.14184224;2024-02-26T01:38:53;7.33;85.36
216;HTU21D;70668;48.81286795;9.14184224;2024-02-26T01:41:22;7.42;85.08
216;HTU21D;70668;48.81286795;9.14184224;2024-02-26T01:43:53;7.22;85.48
216;HTU21D;70668;48.81286795;9.14184224;2024-02-26T01:46:22;7.12;85.45
216;HTU21D;70668;48.81286795;9.14184224;2024-02-26T01:48:50;7.13;85.98
216;HTU21D;70668;48.81286795;9.14184224;2024-02-26T01:51:16;7.24;85.30
216;HTU21D;70668;48.81286795;9.14184224;2024-02-26T01:53:46;7.41;83.98
216;HTU21D;70668;48.81286795;9.14184224;2024-02-26T01:56:15;7.33;84.24
216;HTU21D;70668;48.81286795;9.14184224;2024-02-26T01:58:45;7.24;85.55
216;HTU21D;70668;48.81286795;9.14184224;2024-02-26T02:01:19;7.18;85.57
216;HTU21D;70668;48.81286795;9.14184224;2024-02-26T02:03:50;7.24;85.54
216;HTU21D;70668;48.81286795;9.14184224;2024-02-26T02:06:19;7.07;85.21
216;HTU21D;70668;48.81286795;9.14184224;2024-02-26T02:08:47;7.25;85.98
216;HTU21D;70668;48.81286795;9.14184224;2024-02-26T02:11:17;6.97;87.93
216;HTU21D;70668;48.81286795;9.14184224;2024-02-26T02:13:45;7.01;88.54
216;HTU21D;70668;48.81286795;9.14184224;2024-02-26T02:16:17;7.14;86.36
216;HTU21D;70668;48.81286795;9.14184224;2024-02-26T02:18:45;6.96;89.05
216;HTU21D;70668;48.81286795;9.14184224;2024-02-26T02:21:16;7.11;88.26
216;HTU21D;70668;48.81286795;9.14184224;2024-02-26T02:23:44;7.14;87.12
216;HTU21D;70668;48.81286795;9.14184224;2024-02-26T02:26:15;7.19;86.27
216;HTU21D;70668;48.81286795;9.14184224;2024-02-26T02:28:44;7.25;84.58
216;HTU21D;70668;48.81286795;9.14184224;2024-02-26T02:31:14;7.12;85.65
216;HTU21D;70668;48.81286795;9.14184224;2024-02-26T02:33:43;7.16;85.72
216;HTU21D;70668;48.81286795;9.14184224;2024-02-26T02:36:11;7.20;86.15
216;HTU21D;70668;48.81286795;9.14184224;2024-02-26T02:38:51;7.14;87.63
216;HTU21D;70668;48.81286795;9.14184224;2024-02-26T02:41:20;7.09;86.58
216;HTU21D;70668;48.81286795;9.14184224;2024-02-26T02:43:48;7.07;88.03
216;HTU21D;70668;48.81286795;9.14184224;2024-02-26T02:46:17;7.22;86.96
216;HTU21D;70668;48.81286795;9.14184224;2024-02-26T02:48:45;7.20;89.44
216;HTU21D;70668;48.81286795;9.14184224;2024-02-26T02:51:14;7.26;88.63
216;HTU21D;70668;48.81286795;9.14184224;2024-02-26T02:53:42;6.91;89.16
216;HTU21D;70668;48.81286795;9.14184224;2024-02-26T02:56:13;6.90;88.55
216;HTU21D;70668;48.81286795;9.14184224;2024-02-26T02:58:42;6.96;88.57
216;HTU21D;70668;48.81286795;9.14184224;2024-02-26T03:01:10;6.96;87.23
216;HTU21D;70668;48.81286795;9.14184224;2024-02-26T03:03:39;6.96;88.14
216;HTU21D;70668;48.81286795;9.14184224;2024-02-26T03:06:07;6.98;88.04
216;HTU21D;70668;48.81286795;9.14184224;2024-02-26T03:08:36;6.99;89.09
216;HTU21D;70668;48.81286795;9.14184224;2024-02-26T03:11:07;7.03;89.44
216;HTU21D;70668;48.81286795;9.14184224;2024-02-26T03:13:38;7.20;87.21
216;HTU21D;70668;48.81286795;9.14184224;2024-02-26T03:16:07;7.43;85.28
216;HTU21D;70668;48.81286795;9.14184224;2024-02-26T03:18:35;7.25;87.98
216;HTU21D;70668;48.81286795;9.14184224;2024-02-26T03:21:04;7.16;89.76
216;HTU21D;70668;48.81286795;9.14184224;2024-02-26T03:23:33;7.13;89.13
216;HTU21D;70668;48.81286795;9.14184224;2024-02-26T03:26:03;7.18;90.72
216;HTU21D;70668;48.81286795;9.14184224;2024-02-26T03:28:32;7.22;90.73
216;HTU21D;70668;48.81286795;9.14184224;2024-02-26T03:31:03;7.07;90.04
216;HTU21D;70668;48.81286795;9.14184224;2024-02-26T03:33:32;7.14;90.03
216;HTU21D;70668;48.81286795;9.14184224;2024-02-26T03:36:00;7.02;92.04
216;HTU21D;70668;48.81286795;9.14184224;2024-02-26T03:38:29;7.20;91.13
216;HTU21D;70668;48.81286795;9.14184224;2024-02-26T03:40:57;7.11;89.59
216;HTU21D;70668;48.81286795;9.14184224;2024-02-26T03:43:26;7.15;89.63
216;HTU21D;70668;48.81286795;9.14184224;2024-02-26T03:45:54;7.15;92.48
216;HTU21D;70668;48.81286795;9.14184224;2024-02-26T03:48:25;7.09;93.33
216;HTU21D;70668;48.81286795;9.14184224;2024-02-26T03:50:54;7.32;91.43
216;HTU21D;70668;48.81286795;9.14184224;2024-02-26T03:53:22;7.27;93.66
216;HTU21D;70668;48.81286795;9.14184224;2024-02-26T03:55:51;6.98;93.10
216;HTU21D;70668;48.81286795;9.14184224;2024-02-26T03:58:20;6.99;92.83
216;HTU21D;70668;48.81286795;9.14184224;2024-02-26T04:00:49;6.97;93.66
216;HTU21D;70668;48.81286795;9.14184224;2024-02-26T04:03:17;7.04;94.54
216;HTU21D;70668;48.81286795;9.14184224;2024-02-26T04:05:48;7.16;94.52
216;HTU21D;70668;48.81286795;9.14184224;2024-02-26T04:08:17;7.24;95.13
216;HTU21D;70668;48.81286795;9.14184224;2024-02-26T04:10:45;7.15;93.32
216;HTU21D;70668;48.81286795;9.14184224;2024-02-26T04:13:14;7.17;92.51
216;HTU21D;70668;48.81286795;9.14184224;2024-02-26T04:15:43;7.30;92.85
216;HTU21D;70668;48.81286795;9.14184224;2024-02-26T04:18:11;7.20;89.28
216;HTU21D;70668;48.81286795;9.14184224;2024-02-26T04:20:40;7.30;87.11
216;HTU21D;70668;48.81286795;9.14184224;2024-02-26T04:23:11;7.44;86.98
216;HTU21D;70668;48.81286795;9.14184224;2024-02-26T04:25:40;7.35;85.97
216;HTU21D;70668;48.81286795;9.14184224;2024-02-26T04:28:08;7.45;85.01
216;HTU21D;70668;48.81286795;9.14184224;2024-02-26T04:30:38;7.47;87.20
216;HTU21D;70668;48.81286795;9.14184224;2024-02-26T04:33:06;7.26;87.41
216;HTU21D;70668;48.81286795;9.14184224;2024-02-26T04:35:35;7.30;85.57
216;HTU21D;70668;48.81286795;9.14184224;2024-02-26T04:38:03;7.49;85.85
216;HTU21D;70668;48.81286795;9.14184224;2024-02-26T04:40:35;7.29;87.36
216;HTU21D;70668;48.81286795;9.14184224;2024-02-26T04:43:04;7.26;85.78
216;HTU21D;70668;48.81286795;9.14184224;2024-02-26T04:45:32;7.31;86.46
216;HTU21D;70668;48.81286795;9.14184224;2024-02-26T04:48:00;7.15;88.01
216;HTU21D;70668;48.81286795;9.14184224;2024-02-26T04:50:29;7.19;87.51
216;HTU21D;70668;48.81286795;9.14184224;2024-02-26T04:52:58;7.24;86.86
216;HTU21D;70668;48.81286795;9.14184224;2024-02-26T04:55:26;7.53;86.20
216;HTU21D;70668;48.81286795;9.14184224;2024-02-26T04:57:57;7.29;87.82
216;HTU21D;70668;48.81286795;9.14184224;2024-02-26T05:00:26;7.19;85.42
216;HTU21D;70668;48.81286795;9.14184224;2024-02-26T05:02:54;7.20;85.38
216;HTU21D;70668;48.81286795;9.14184224;2024-02-26T05:05:23;7.23;84.93
216;HTU21D;70668;48.81286795;9.14184224;2024-02-26T05:07:51;7.12;87.32
216;HTU21D;70668;48.81286795;9.14184224;2024-02-26T05:10:20;7.11;89.34
216;HTU21D;70668;48.81286795;9.14184224;2024-02-26T05:12:48;7.19;85.55
216;HTU21D;70668;48.81286795;9.14184224;2024-02-26T05:15:19;7.30;86.58
216;HTU21D;70668;48.81286795;9.14184224;2024-02-26T05:17:48;7.22;87.24
216;HTU21D;70668;48.81286795;9.14184224;2024-02-26T05:20:16;7.12;86.71
216;HTU21D;70668;48.81286795;9.14184224;2024-02-26T05:22:46;6.99;86.58
216;HTU21D;70668;48.81286795;9.14184224;2024-02-26T05:25:16;7.08;86.71
216;HTU21D;70668;48.81286795;9.14184224;2024-02-26T05:27:46;7.32;87.44
216;HTU21D;70668;48.81286795;9.14184224;2024-02-26T05:30:15;7.00;88.35
216;HTU21D;70668;48.81286795;9.14184224;2024-02-26T05:32:46;7.30;86.44
216;HTU21D;70668;48.81286795;9.14184224;2024-02-26T05:35:14;7.01;87.76
216;HTU21D;70668;48.81286795;9.14184224;2024-02-26T05:37:43;7.11;88.27
216;HTU21D;70668;48.81286795;9.14184224;2024-02-26T05:40:12;7.08;89.83
216;HTU21D;70668;48.81286795;9.14184224;2024-02-26T05:42:41;7.23;88.56
216;HTU21D;70668;48.81286795;9.14184224;2024-02-26T05:45:10;7.15;88.50
216;HTU21D;70668;48.81286795;9.14184224;2024-02-26T05:47:39;7.01;89.90
216;HTU21D;70668;48.81286795;9.14184224;2024-02-26T05:50:11;7.49;88.29
216;HTU21D;70668;48.81286795;9.14184224;2024-02-26T05:52:41;7.42;85.87
216;HTU21D;70668;48.81286795;9.14184224;2024-02-26T05:55:09;7.24;89.05
216;HTU21D;70668;48.81286795;9.14184224;2024-02-26T05:57:38;7.12;89.70
216;HTU21D;70668;48.81286795;9.14184224;2024-02-26T06:00:08;7.15;90.98
216;HTU21D;70668;48.81286795;9.14184224;2024-02-26T06:02:38;7.29;91.31
216;HTU21D;70668;48.81286795;9.14184224;2024-02-26T06:05:07;7.13;90.90
216;HTU21D;70668;48.81286795;9.14184224;2024-02-26T06:07:38;7.17;88.97
216;HTU21D;70668;48.81286795;9.14184224;2024-02-26T06:10:07;7.17;92.35
216;HTU21D;70668;48.81286795;9.14184224;2024-02-26T06:12:36;6.95;94.81
216;HTU21D;70668;48.81286795;9.14184224;2024-02-26T06:15:05;6.87;95.03
216;HTU21D;70668;48.81286795;9.14184224;2024-02-26T06:17:34;6.67;95.17
216;HTU21D;70668;48.81286795;9.14184224;2024-02-26T06:20:04;6.65;97.49
216;HTU21D;70668;48.81286795;9.14184224;2024-02-26T06:22:39;6.74;97.21
216;HTU21D;70668;48.81286795;9.14184224;2024-02-26T06:25:08;6.69;97.94
216;HTU21D;70668;48.81286795;9.14184224;2024-02-26T06:27:37;6.68;98.12
216;HTU21D;70668;48.81286795;9.14184224;2024-02-26T06:30:07;6.63;97.86
216;HTU21D;70668;48.81286795;9.14184224;2024-02-26T06:32:36;6.57;98.55
216;HTU21D;70668;48.81286795;9.14184224;2024-02-26T06:35:05;6.40;98.74
216;HTU21D;70668;48.81286795;9.14184224;2024-02-26T06:37:35;6.67;100.03
216;HTU21D;70668;48.81286795;9.14184224;2024-02-26T06:40:08;6.60;99.09
216;HTU21D;70668;48.81286795;9.14184224;2024-02-26T06:42:36;6.65;98.53
216;HTU21D;70668;48.81286795;9.14184224;2024-02-26T06:45:06;6.68;100.48
216;HTU21D;70668;48.81286795;9.14184224;2024-02-26T06:47:34;6.63;100.49
216;HTU21D;70668;48.81286795;9.14184224;2024-02-26T06:50:03;6.51;100.00
216;HTU21D;70668;48.81286795;9.14184224;2024-02-26T06:52:32;6.65;99.62
216;HTU21D;70668;48.81286795;9.14184224;2024-02-26T06:55:01;6.73;99.00
216;HTU21D;70668;48.81286795;9.14184224;2024-02-26T06:57:33;6.74;98.16
216;HTU21D;70668;48.81286795;9.14184224;2024-02-26T07:00:01;6.72;97.86
216;HTU21D;70668;48.81286795;9.14184224;2024-02-26T07:02:30;6.63;98.14
216;HTU21D;70668;48.81286795;9.14184224;2024-02-26T07:04:59;6.72;100.03
216;HTU21D;70668;48.81286795;9.14184224;2024-02-26T07:07:28;6.89;98.06
216;HTU21D;70668;48.81286795;9.14184224;2024-02-26T07:09:57;7.35;97.80
216;HTU21D;70668;48.81286795;9.14184224;2024-02-26T07:12:29;6.97;99.85
216;HTU21D;70668;48.81286795;9.14184224;2024-02-26T07:15:00;7.10;97.57
216;HTU21D;70668;48.81286795;9.14184224;2024-02-26T07:17:29;7.24;98.53
216;HTU21D;70668;48.81286795;9.14184224;2024-02-26T07:19:59;7.33;97.27
216;HTU21D;70668;48.81286795;9.14184224;2024-02-26T07:22:30;7.50;94.99
216;HTU21D;70668;48.81286795;9.14184224;2024-02-26T07:24:58;7.31;95.82
216;HTU21D;70668;48.81286795;9.14184224;2024-02-26T07:27:27;7.12;95.21
216;HTU21D;70668;48.81286795;9.14184224;2024-02-26T07:29:55;7.17;95.84
216;HTU21D;70668;48.81286795;9.14184224;2024-02-26T07:32:26;7.42;94.56
216;HTU21D;70668;48.81286795;9.14184224;2024-02-26T07:34:55;7.61;92.11
216;HTU21D;70668;48.81286795;9.14184224;2024-02-26T07:37:23;7.40;94.20
216;HTU21D;70668;48.81286795;9.14184224;2024-02-26T07:39:52;7.38;93.74
216;HTU21D;70668;48.81286795;9.14184224;2024-02-26T07:42:20;7.53;93.55
216;HTU21D;70668;48.81286795;9.14184224;2024-02-26T07:44:49;7.32;95.52
216;HTU21D;70668;48.81286795;9.14184224;2024-02-26T07:47:18;7.47;95.76
216;HTU21D;70668;48.81286795;9.14184224;2024-02-26T07:49:49;7.59;95.97
216;HTU21D;70668;48.81286795;9.14184224;2024-02-26T07:52:17;7.63;94.45
216;HTU21D;70668;48.81286795;9.14184224;2024-02-26T07:54:46;7.68;94.91
216;HTU21D;70668;48.81286795;9.14184224;2024-02-26T07:57:15;7.82;95.65
216;HTU21D;70668;48.81286795;9.14184224;2024-02-26T07:59:43;7.68;95.51
216;HTU21D;70668;48.81286795;9.14184224;2024-02-26T08:02:15;7.78;96.46
216;HTU21D;70668;48.81286795;9.14184224;2024-02-26T08:04:43;7.89;93.93
216;HTU21D;70668;48.81286795;9.14184224;2024-02-26T08:07:14;7.91;95.14
216;HTU21D;70668;48.81286795;9.14184224;2024-02-26T08:09:43;8.27;89.72
216;HTU21D;70668;48.81286795;9.14184224;2024-02-26T08:12:12;8.13;92.75
216;HTU21D;70668;48.81286795;9.14184224;2024-02-26T08:14:40;8.15;91.85
216;HTU21D;70668;48.81286795;9.14184224;2024-02-26T08:17:09;8.19;88.76
216;HTU21D;70668;48.81286795;9.14184224;2024-02-26T08:19:38;8.01;87.91
216;HTU21D;70668;48.81286795;9.14184224;2024-02-26T08:22:06;8.24;89.18
216;HTU21D;70668;48.81286795;9.14184224;2024-02-26T08:24:38;8.32;86.71
216;HTU21D;70668;48.81286795;9.14184224;2024-02-26T08:27:06;8.24;88.45
216;HTU21D;70668;48.81286795;9.14184224;2024-02-26T08:29:35;8.36;88.85
216;HTU21D;70668;48.81286795;9.14184224;2024-02-26T08:32:04;8.34;88.12
216;HTU21D;70668;48.81286795;9.14184224;2024-02-26T08:34:33;8.31;88.48
216;HTU21D;70668;48.81286795;9.14184224;2024-02-26T08:37:02;8.33;88.18
216;HTU21D;70668;48.81286795;9.14184224;2024-02-26T08:39:31;8.56;85.33
216;HTU21D;70668;48.81286795;9.14184224;2024-02-26T08:42:02;8.46;85.70
216;HTU21D;70668;48.81286795;9.14184224;2024-02-26T08:44:31;8.46;85.37
216;HTU21D;70668;48.81286795;9.14184224;2024-02-26T08:47:00;8.45;85.99
216;HTU21D;70668;48.81286795;9.14184224;2024-02-26T08:49:28;8.49;85.29
216;HTU21D;70668;48.81286795;9.14184224;2024-02-26T08:51:57;8.57;85.82
216;HTU21D;70668;48.81286795;9.14184224;2024-02-26T08:54:25;8.80;85.25
216;HTU21D;70668;48.81286795;9.14184224;2024-02-26T08:56:54;8.94;81.75
216;HTU21D;70668;48.81286795;9.14184224;2024-02-26T08:59:25;9.23;81.70
216;HTU21D;70668;48.81286795;9.14184224;2024-02-26T09:01:53;9.21;78.75
216;HTU21D;70668;48.81286795;9.14184224;2024-02-26T09:04:22;8.86;81.70
216;HTU21D;70668;48.81286795;9.14184224;2024-02-26T09:06:52;9.14;77.24
216;HTU21D;70668;48.81286795;9.14184224;2024-02-26T09:09:21;9.09;81.28
216;HTU21D;70668;48.81286795;9.14184224;2024-02-26T09:11:52;9.24;80.74
216;HTU21D;70668;48.81286795;9.14184224;2024-02-26T09:14:21;9.18;79.09
216;HTU21D;70668;48.81286795;9.14184224;2024-02-26T09:16:52;9.26;79.71
216;HTU21D;70668;48.81286795;9.14184224;2024-02-26T09:19:20;9.03;76.61
216;HTU21D;70668;48.81286795;9.14184224;2024-02-26T09:21:49;9.29;79.26
216;HTU21D;70668;48.81286795;9.14184224;2024-02-26T09:24:19;9.09;78.20
216;HTU21D;70668;48.81286795;9.14184224;2024-02-26T09:26:47;9.26;79.24
216;HTU21D;70668;48.81286795;9.14184224;2024-02-26T09:29:17;9.32;77.85
216;HTU21D;70668;48.81286795;9.14184224;2024-02-26T09:31:46;9.03;84.83
216;HTU21D;70668;48.81286795;9.14184224;2024-02-26T09:34:17;9.21;79.35
216;HTU21D;70668;48.81286795;9.14184224;2024-02-26T09:36:46;9.45;79.40
216;HTU21D;70668;48.81286795;9.14184224;2024-02-26T09:39:14;9.29;81.01
216;HTU21D;70668;48.81286795;9.14184224;2024-02-26T09:41:47;9.05;81.18
216;HTU21D;70668;48.81286795;9.14184224;2024-02-26T09:44:18;9.08;84.58
216;HTU21D;70668;48.81286795;9.14184224;2024-02-26T09:46:48;9.56;76.73
216;HTU21D;70668;48.81286795;9.14184224;2024-02-26T09:49:22;9.15;79.66
216;HTU21D;70668;48.81286795;9.14184224;2024-02-26T09:51:51;9.69;80.85
216;HTU21D;70668;48.81286795;9.14184224;2024-02-26T09:54:24;9.75;82.66
216;HTU21D;70668;48.81286795;9.14184224;2024-02-26T09:56:58;9.62;82.94
216;HTU21D;70668;48.81286795;9.14184224;2024-02-26T09:59:29;9.71;85.12
216;HTU21D;70668;48.81286795;9.14184224;2024-02-26T10:02:01;9.88;83.28
216;HTU21D;70668;48.81286795;9.14184224;2024-02-26T10:04:34;10.04;82.81
216;HTU21D;70668;48.81286795;9.14184224;2024-02-26T10:07:03;9.98;83.86
216;HTU21D;70668;48.81286795;9.14184224;2024-02-26T10:09:32;9.99;80.49
216;HTU21D;70668;48.81286795;9.14184224;2024-02-26T10:12:01;10.21;81.75
216;HTU21D;70668;48.81286795;9.14184224;2024-02-26T10:14:30;10.31;81.01
216;HTU21D;70668;48.81286795;9.14184224;2024-02-26T10:16:58;10.39;80.72
216;HTU21D;70668;48.81286795;9.14184224;2024-02-26T10:19:28;10.24;81.50
216;HTU21D;70668;48.81286795;9.14184224;2024-02-26T10:22:01;10.35;78.88
216;HTU21D;70668;48.81286795;9.14184224;2024-02-26T10:24:31;10.60;76.12
216;HTU21D;70668;48.81286795;9.14184224;2024-02-26T10:27:00;10.70;75.41
216;HTU21D;70668;48.81286795;9.14184224;2024-02-26T10:29:28;10.79;74.73
216;HTU21D;70668;48.81286795;9.14184224;2024-02-26T10:31:57;10.57;78.20
216;HTU21D;70668;48.81286795;9.14184224;2024-02-26T10:34:26;10.80;78.68
216;HTU21D;70668;48.81286795;9.14184224;2024-02-26T10:36:54;10.74;78.30
216;HTU21D;70668;48.81286795;9.14184224;2024-02-26T10:39:25;11.07;76.53
216;HTU21D;70668;48.81286795;9.14184224;2024-02-26T10:41:54;11.30;72.99
216;HTU21D;70668;48.81286795;9.14184224;2024-02-26T10:44:22;11.12;74.58
216;HTU21D;70668;48.81286795;9.14184224;2024-02-26T10:46:51;10.88;73.15
216;HTU21D;70668;48.81286795;9.14184224;2024-02-26T10:49:20;10.95;74.17
216;HTU21D;70668;48.81286795;9.14184224;2024-02-26T10:51:54;11.15;69.27
216;HTU21D;70668;48.81286795;9.14184224;2024-02-26T10:54:26;11.10;67.80
216;HTU21D;70668;48.81286795;9.14184224;2024-02-26T10:56:56;10.99;73.86
216;HTU21D;70668;48.81286795;9.14184224;2024-02-26T10:59:26;11.15;71.82
216;HTU21D;70668;48.81286795;9.14184224;2024-02-26T11:01:55;11.24;67.87
216;HTU21D;70668;48.81286795;9.14184224;2024-02-26T11:04:25;11.43;70.88
216;HTU21D;70668;48.81286795;9.14184224;2024-02-26T11:06:57;10.90;68.08
216;HTU21D;70668;48.81286795;9.14184224;2024-02-26T11:09:29;11.05;68.26
216;HTU21D;70668;48.81286795;9.14184224;2024-02-26T11:11:58;10.99;68.95
216;HTU21D;70668;48.81286795;9.14184224;2024-02-26T11:14:29;11.04;68.53
216;HTU21D;70668;48.81286795;9.14184224;2024-02-26T11:16:58;11.22;67.04
216;HTU21D;70668;48.81286795;9.14184224;2024-02-26T11:19:30;11.04;67.93
216;HTU21D;70668;48.81286795;9.14184224;2024-02-26T11:22:00;11.37;66.95
216;HTU21D;70668;48.81286795;9.14184224;2024-02-26T11:24:32;11.02;68.21
216;HTU21D;70668;48.81286795;9.14184224;2024-02-26T11:27:06;11.02;67.55
216;HTU21D;70668;48.81286795;9.14184224;2024-02-26T11:29:38;11.30;68.34
216;HTU21D;70668;48.81286795;9.14184224;2024-02-26T11:32:07;11.39;65.94
216;HTU21D;70668;48.81286795;9.14184224;2024-02-26T11:34:36;11.54;67.39
216;HTU21D;70668;48.81286795;9.14184224;2024-02-26T11:37:11;11.62;63.67
216;HTU21D;70668;48.81286795;9.14184224;2024-02-26T11:39:43;11.63;64.95
216;HTU21D;70668;48.81286795;9.14184224;2024-02-26T11:42:14;11.88;65.14
216;HTU21D;70668;48.81286795;9.14184224;2024-02-26T11:44:42;11.79;63.69
216;HTU21D;70668;48.81286795;9.14184224;2024-02-26T11:47:12;11.89;63.82
216;HTU21D;70668;48.81286795;9.14184224;2024-02-26T11:49:40;12.14;61.63
216;HTU21D;70668;48.81286795;9.14184224;2024-02-26T11:52:10;12.16;61.09
216;HTU21D;70668;48.81286795;9.14184224;2024-02-26T11:54:49;12.45;61.07
216;HTU21D;70668;48.81286795;9.14184224;2024-02-26T11:57:25;12.17;59.74
216;HTU21D;70668;48.81286795;9.14184224;2024-02-26T11:59:55;11.98;64.30
216;HTU21D;70668;48.81286795;9.14184224;2024-02-26T12:02:41;11.99;59.86
216;HTU21D;70668;48.81286795;9.14184224;2024-02-26T12:05:11;11.87;65.36
216;HTU21D;70668;48.81286795;9.14184224;2024-02-26T12:07:46;11.84;63.15
216;HTU21D;70668;48.81286795;9.14184224;2024-02-26T12:10:23;11.86;61.85
216;HTU21D;70668;48.81286795;9.14184224;2024-02-26T12:12:54;11.90;62.82
216;HTU21D;70668;48.81286795;9.14184224;2024-02-26T12:15:23;11.96;62.20
216;HTU21D;70668;48.81286795;9.14184224;2024-02-26T12:17:52;11.79;66.48
216;HTU21D;70668;48.81286795;9.14184224;2024-02-26T12:20:21;11.79;66.15
216;HTU21D;70668;48.81286795;9.14184224;2024-02-26T12:22:50;11.89;65.14
216;HTU21D;70668;48.81286795;9.14184224;2024-02-26T12:25:25;12.03;63.04
216;HTU21D;70668;48.81286795;9.14184224;2024-02-26T12:27:54;11.90;64.29
216;HTU21D;70668;48.81286795;9.14184224;2024-02-26T12:30:24;11.90;66.15
216;HTU21D;70668;48.81286795;9.14184224;2024-02-26T12:33:00;12.41;64.37
216;HTU21D;70668;48.81286795;9.14184224;2024-02-26T12:35:29;12.11;64.63
216;HTU21D;70668;48.81286795;9.14184224;2024-02-26T12:37:58;12.28;65.07
216;HTU21D;70668;48.81286795;9.14184224;2024-02-26T12:40:32;12.04;65.07
216;HTU21D;70668;48.81286795;9.14184224;2024-02-26T12:43:00;12.14;62.55
216;HTU21D;70668;48.81286795;9.14184224;2024-02-26T12:45:29;12.22;64.06
216;HTU21D;70668;48.81286795;9.14184224;2024-02-26T12:47:59;12.53;63.64
216;HTU21D;70668;48.81286795;9.14184224;2024-02-26T12:50:27;12.35;64.47
216;HTU21D;70668;48.81286795;9.14184224;2024-02-26T12:52:58;12.75;59.09
216;HTU21D;70668;48.81286795;9.14184224;2024-02-26T12:55:27;12.73;61.83
216;HTU21D;70668;48.81286795;9.14184224;2024-02-26T12:57:59;12.84;61.01
216;HTU21D;70668;48.81286795;9.14184224;2024-02-26T13:00:29;12.58;60.61
216;HTU21D;70668;48.81286795;9.14184224;2024-02-26T13:02:59;12.76;61.22
216;HTU21D;70668;48.81286795;9.14184224;2024-02-26T13:05:28;12.89;58.38
216;HTU21D;70668;48.81286795;9.14184224;2024-02-26T13:07:57;12.88;55.97
216;HTU21D;70668;48.81286795;9.14184224;2024-02-26T13:10:26;12.95;57.19
216;HTU21D;70668;48.81286795;9.14184224;2024-02-26T13:12:54;13.05;58.16
216;HTU21D;70668;48.81286795;9.14184224;2024-02-26T13:15:25;12.90;58.68
216;HTU21D;70668;48.81286795;9.14184224;2024-02-26T13:17:54;13.07;56.92
216;HTU21D;70668;48.81286795;9.14184224;2024-02-26T13:20:28;13.10;57.42
216;HTU21D;70668;48.81286795;9.14184224;2024-02-26T13:23:01;13.43;56.84
216;HTU21D;70668;48.81286795;9.14184224;2024-02-26T13:25:30;13.46;56.71
216;HTU21D;70668;48.81286795;9.14184224;2024-02-26T13:28:09;13.61;57.31
216;HTU21D;70668;48.81286795;9.14184224;2024-02-26T13:30:40;13.40;56.00
216;HTU21D;70668;48.81286795;9.14184224;2024-02-26T13:33:10;13.46;54.53
216;HTU21D;70668;48.81286795;9.14184224;2024-02-26T13:35:39;13.48;53.62
216;HTU21D;70668;48.81286795;9.14184224;2024-02-26T13:38:08;13.04;58.26
216;HTU21D;70668;48.81286795;9.14184224;2024-02-26T13:40:38;13.19;58.32
216;HTU21D;70668;48.81286795;9.14184224;2024-02-26T13:43:07;12.89;56.81
216;HTU21D;70668;48.81286795;9.14184224;2024-02-26T13:45:37;12.99;60.99
216;HTU21D;70668;48.81286795;9.14184224;2024-02-26T13:48:09;13.02;59.12
216;HTU21D;70668;48.81286795;9.14184224;2024-02-26T13:50:38;13.18;58.54
216;HTU21D;70668;48.81286795;9.14184224;2024-02-26T13:53:08;13.16;60.40
216;HTU21D;70668;48.81286795;9.14184224;2024-02-26T13:55:37;13.03;60.70